SPOKO EPRZ-EPRZ
Flight info
| Callsign | SPOKO |
|---|---|
| Flight time | 0h 12m |
| Altitude | 2000 |
| Route | EPRZ/27 |
| Aircraft | C152/L-SLW/L |
Departure
| Time | 2026-04-26 19:02 |
|---|---|
| Airport | Rzeszów-Jasionka Airport (EPRZ) |
Arrival
| Time | 2026-04-26 19:15 |
|---|---|
| Airport | Rzeszów-Jasionka Airport (EPRZ) |
| Time | Latitude | Longitude | Altitude | Speed | Heading |
|---|---|---|---|---|---|
| 2026-04-26 18:59 | 50.11079 | 22.02733 | 677 ft | 0 kts | 176° |
| 2026-04-26 18:59 | 50.11071 | 22.02734 | 677 ft | 0 kts | 180° |
| 2026-04-26 19:00 | 50.11027 | 22.02731 | 675 ft | 10 kts | 185° |
| 2026-04-26 19:00 | 50.10984 | 22.02660 | 675 ft | 4 kts | 266° |
| 2026-04-26 19:00 | 50.10984 | 22.02659 | 675 ft | 0 kts | 266° |
| 2026-04-26 19:00 | 50.10985 | 22.02647 | 675 ft | 10 kts | 272° |
| 2026-04-26 19:01 | 50.10992 | 22.02253 | 670 ft | 59 kts | 270° |
| 2026-04-26 19:01 | 50.10994 | 22.01565 | 786 ft | 66 kts | 267° |
| 2026-04-26 19:01 | 50.10976 | 22.00845 | 908 ft | 69 kts | 266° |
| 2026-04-26 19:01 | 50.10910 | 22.00123 | 1079 ft | 68 kts | 233° |
| 2026-04-26 19:02 | 50.10412 | 21.99910 | 1178 ft | 79 kts | 184° |
| 2026-04-26 19:02 | 50.09836 | 21.99895 | 1266 ft | 86 kts | 182° |
| 2026-04-26 19:02 | 50.09332 | 22.00290 | 1385 ft | 90 kts | 105° |
| 2026-04-26 19:02 | 50.09258 | 22.00937 | 1412 ft | 95 kts | 87° |
| 2026-04-26 19:04 | 50.09311 | 22.08276 | 1536 ft | 103 kts | 79° |
| 2026-04-26 19:04 | 50.09383 | 22.09440 | 1429 ft | 113 kts | 78° |
| 2026-04-26 19:05 | 50.09978 | 22.10976 | 1645 ft | 84 kts | 353° |
| 2026-04-26 19:05 | 50.10533 | 22.10833 | 1737 ft | 78 kts | 333° |
| 2026-04-26 19:05 | 50.10836 | 22.10132 | 1563 ft | 90 kts | 288° |
| 2026-04-26 19:06 | 50.10892 | 22.09122 | 1440 ft | 93 kts | 271° |
| 2026-04-26 19:06 | 50.10885 | 22.08102 | 1302 ft | 94 kts | 273° |
| 2026-04-26 19:06 | 50.10928 | 22.07108 | 1111 ft | 92 kts | 271° |
| 2026-04-26 19:06 | 50.10935 | 22.06115 | 927 ft | 90 kts | 269° |
| 2026-04-26 19:07 | 50.10950 | 22.05147 | 798 ft | 88 kts | 270° |
| 2026-04-26 19:07 | 50.10961 | 22.04234 | 706 ft | 75 kts | 270° |
| 2026-04-26 19:07 | 50.10972 | 22.03563 | 677 ft | 52 kts | 270° |
| 2026-04-26 19:07 | 50.10979 | 22.02980 | 683 ft | 65 kts | 272° |
| 2026-04-26 19:08 | 50.10998 | 22.02221 | 799 ft | 72 kts | 274° |
| 2026-04-26 19:08 | 50.11013 | 22.01410 | 906 ft | 75 kts | 274° |
| 2026-04-26 19:08 | 50.11024 | 22.00588 | 1020 ft | 76 kts | 268° |
| 2026-04-26 19:08 | 50.10770 | 21.99939 | 1146 ft | 83 kts | 203° |
| 2026-04-26 19:09 | 50.10163 | 21.99835 | 1180 ft | 91 kts | 189° |
| 2026-04-26 19:09 | 50.09516 | 21.99727 | 1214 ft | 97 kts | 192° |
| 2026-04-26 19:09 | 50.08867 | 21.99863 | 1267 ft | 99 kts | 132° |
| 2026-04-26 19:09 | 50.08705 | 22.00871 | 1357 ft | 98 kts | 96° |
| 2026-04-26 19:10 | 50.08608 | 22.01925 | 1402 ft | 100 kts | 94° |
| 2026-04-26 19:10 | 50.08538 | 22.02644 | 1446 ft | 100 kts | 97° |
| 2026-04-26 19:11 | 50.08469 | 22.07817 | 1224 ft | 106 kts | 81° |
| 2026-04-26 19:11 | 50.08599 | 22.08981 | 1206 ft | 106 kts | 77° |
| 2026-04-26 19:12 | 50.08730 | 22.10074 | 1270 ft | 100 kts | 65° |
| 2026-04-26 19:12 | 50.09218 | 22.10812 | 1284 ft | 97 kts | 20° |
| 2026-04-26 19:12 | 50.09793 | 22.10934 | 1465 ft | 83 kts | 352° |
| 2026-04-26 19:12 | 50.10335 | 22.10625 | 1523 ft | 82 kts | 324° |
| 2026-04-26 19:13 | 50.10756 | 22.09977 | 1489 ft | 89 kts | 307° |
| 2026-04-26 19:13 | 50.10919 | 22.09021 | 1399 ft | 97 kts | 275° |
| 2026-04-26 19:13 | 50.10934 | 22.07950 | 1259 ft | 100 kts | 274° |
| 2026-04-26 19:13 | 50.10948 | 22.06932 | 1072 ft | 86 kts | 272° |
| 2026-04-26 19:14 | 50.10955 | 22.06044 | 902 ft | 78 kts | 273° |
| 2026-04-26 19:14 | 50.10963 | 22.05211 | 791 ft | 77 kts | 269° |
| 2026-04-26 19:14 | 50.10967 | 22.04414 | 704 ft | 67 kts | 272° |
| 2026-04-26 19:14 | 50.10970 | 22.03977 | 673 ft | 55 kts | 272° |
| 2026-04-26 19:15 | 50.10976 | 22.03457 | 676 ft | 28 kts | 271° |
| 2026-04-26 19:15 | 50.10982 | 22.03141 | 679 ft | 33 kts | 272° |
| 2026-04-26 19:15 | 50.10988 | 22.02787 | 675 ft | 30 kts | 289° |
| 2026-04-26 19:15 | 50.11078 | 22.02727 | 677 ft | 12 kts | 10° |
| 2026-04-26 19:16 | 50.11144 | 22.02763 | 680 ft | 9 kts | 48° |
| 2026-04-26 19:16 | 50.11157 | 22.02847 | 680 ft | 8 kts | 49° |
| 2026-04-26 19:16 | 50.11188 | 22.02871 | 680 ft | 0 kts | 356° |
| 2026-04-26 19:18 | 50.11224 | 22.02872 | 681 ft | 13 kts | 2° |
| 2026-04-26 19:18 | 50.11313 | 22.02846 | 682 ft | 12 kts | 306° |
| 2026-04-26 19:19 | 50.11294 | 22.02745 | 681 ft | 11 kts | 206° |
| 2026-04-26 19:19 | 50.11208 | 22.02737 | 680 ft | 15 kts | 182° |
| 2026-04-26 19:19 | 50.11098 | 22.02734 | 678 ft | 15 kts | 182° |
| 2026-04-26 19:19 | 50.11074 | 22.02734 | 677 ft | 0 kts | 180° |
| 2026-04-26 19:20 | 50.11073 | 22.02734 | 677 ft | 0 kts | 178° |
| 2026-04-26 19:20 | 50.10989 | 22.02696 | 675 ft | 16 kts | 245° |
| 2026-04-26 19:20 | 50.10987 | 22.02485 | 673 ft | 37 kts | 272° |
| 2026-04-26 19:21 | 50.11000 | 22.01876 | 717 ft | 66 kts | 274° |
| 2026-04-26 19:21 | 50.11009 | 22.01122 | 817 ft | 73 kts | 272° |
| 2026-04-26 19:21 | 50.11006 | 22.00323 | 960 ft | 72 kts | 263° |
| 2026-04-26 19:21 | 50.10615 | 21.99902 | 1089 ft | 83 kts | 189° |
| 2026-04-26 19:22 | 50.10016 | 21.99831 | 1134 ft | 89 kts | 183° |
| 2026-04-26 19:22 | 50.09645 | 22.00489 | 1229 ft | 89 kts | 100° |
| 2026-04-26 19:22 | 50.09573 | 22.01476 | 1297 ft | 95 kts | 88° |
| 2026-04-26 19:22 | 50.09561 | 22.02535 | 1314 ft | 99 kts | 89° |
| 2026-04-26 19:23 | 50.09546 | 22.03620 | 1291 ft | 103 kts | 90° |
| 2026-04-26 19:23 | 50.09503 | 22.04746 | 1289 ft | 105 kts | 92° |
| 2026-04-26 19:23 | 50.09452 | 22.05877 | 1299 ft | 105 kts | 94° |
| 2026-04-26 19:23 | 50.09348 | 22.07017 | 1261 ft | 107 kts | 98° |
| 2026-04-26 19:24 | 50.09194 | 22.08118 | 1354 ft | 101 kts | 103° |
| 2026-04-26 19:24 | 50.09159 | 22.09126 | 1497 ft | 90 kts | 74° |
| 2026-04-26 19:24 | 50.09791 | 22.10663 | 1695 ft | 82 kts | 21° |
| 2026-04-26 19:25 | 50.10329 | 22.10901 | 1724 ft | 77 kts | 350° |
| 2026-04-26 19:25 | 50.10692 | 22.10688 | 1545 ft | 92 kts | 326° |
| 2026-04-26 19:25 | 50.10953 | 22.09447 | 1297 ft | 102 kts | 273° |
| 2026-04-26 19:25 | 50.10944 | 22.08327 | 1124 ft | 100 kts | 271° |
| 2026-04-26 19:26 | 50.10941 | 22.07264 | 1070 ft | 98 kts | 271° |
| 2026-04-26 19:26 | 50.10941 | 22.06237 | 960 ft | 95 kts | 271° |
| 2026-04-26 19:26 | 50.10953 | 22.05170 | 813 ft | 100 kts | 272° |
| 2026-04-26 19:26 | 50.10965 | 22.04188 | 696 ft | 76 kts | 273° |
| 2026-04-26 19:27 | 50.10974 | 22.03491 | 677 ft | 54 kts | 266° |
| 2026-04-26 19:27 | 50.10982 | 22.02851 | 713 ft | 67 kts | 271° |
| 2026-04-26 19:27 | 50.10997 | 22.02075 | 796 ft | 76 kts | 271° |
| 2026-04-26 19:27 | 50.11000 | 22.01226 | 865 ft | 81 kts | 269° |
| 2026-04-26 19:28 | 50.10999 | 22.00324 | 927 ft | 83 kts | 268° |
| 2026-04-26 19:28 | 50.10685 | 21.99660 | 1018 ft | 90 kts | 193° |
| 2026-04-26 19:28 | 50.10069 | 21.99858 | 1108 ft | 93 kts | 166° |
| 2026-04-26 19:28 | 50.09703 | 22.00594 | 1128 ft | 96 kts | 93° |
| 2026-04-26 19:29 | 50.09673 | 22.01682 | 1120 ft | 102 kts | 85° |
| 2026-04-26 19:29 | 50.09700 | 22.02780 | 1119 ft | 101 kts | 86° |
| 2026-04-26 19:29 | 50.09730 | 22.03879 | 1130 ft | 102 kts | 86° |
| 2026-04-26 19:29 | 50.09706 | 22.04966 | 1210 ft | 100 kts | 91° |
| 2026-04-26 19:30 | 50.09685 | 22.06069 | 1233 ft | 102 kts | 89° |
| 2026-04-26 19:30 | 50.09672 | 22.07172 | 1285 ft | 103 kts | 89° |
| 2026-04-26 19:30 | 50.09642 | 22.08312 | 1251 ft | 107 kts | 90° |
| 2026-04-26 19:30 | 50.09624 | 22.09077 | 1261 ft | 107 kts | 92° |
| 2026-04-26 19:31 | 50.09575 | 22.10671 | 1169 ft | 110 kts | 82° |
| 2026-04-26 19:31 | 50.10026 | 22.11299 | 1343 ft | 80 kts | 356° |
| 2026-04-26 19:31 | 50.10467 | 22.10890 | 1370 ft | 87 kts | 313° |
| 2026-04-26 19:31 | 50.10793 | 22.10076 | 1259 ft | 94 kts | 288° |
| 2026-04-26 19:32 | 50.10912 | 22.09037 | 1125 ft | 100 kts | 275° |
| 2026-04-26 19:32 | 50.10924 | 22.07973 | 1043 ft | 98 kts | 272° |
| 2026-04-26 19:32 | 50.10945 | 22.06911 | 951 ft | 99 kts | 272° |
| 2026-04-26 19:32 | 50.10952 | 22.05829 | 844 ft | 100 kts | 271° |
| 2026-04-26 19:33 | 50.10962 | 22.04765 | 755 ft | 91 kts | 272° |
| 2026-04-26 19:33 | 50.10970 | 22.03934 | 679 ft | 63 kts | 271° |
| 2026-04-26 19:33 | 50.10978 | 22.03327 | 676 ft | 62 kts | 269° |
| 2026-04-26 19:33 | 50.10988 | 22.02591 | 733 ft | 74 kts | 272° |
| 2026-04-26 19:34 | 50.10998 | 22.01775 | 786 ft | 79 kts | 272° |
| 2026-04-26 19:34 | 50.11018 | 22.00920 | 856 ft | 78 kts | 273° |
| 2026-04-26 19:34 | 50.10889 | 22.00145 | 961 ft | 80 kts | 226° |
| 2026-04-26 19:34 | 50.10323 | 21.99926 | 1073 ft | 88 kts | 181° |
| 2026-04-26 19:35 | 50.09877 | 22.00552 | 1195 ft | 95 kts | 103° |
| 2026-04-26 19:35 | 50.09769 | 22.01621 | 1223 ft | 103 kts | 93° |
| 2026-04-26 19:35 | 50.09715 | 22.02724 | 1276 ft | 103 kts | 92° |
| 2026-04-26 19:35 | 50.09714 | 22.03863 | 1287 ft | 106 kts | 87° |
| 2026-04-26 19:36 | 50.09681 | 22.05031 | 1301 ft | 109 kts | 91° |
| 2026-04-26 19:36 | 50.09668 | 22.05831 | 1294 ft | 111 kts | 89° |
| 2026-04-26 19:36 | 50.09618 | 22.07427 | 1325 ft | 109 kts | 93° |
| 2026-04-26 19:36 | 50.09536 | 22.08610 | 1326 ft | 110 kts | 95° |
| 2026-04-26 19:37 | 50.09668 | 22.09586 | 1384 ft | 78 kts | 45° |
| 2026-04-26 19:37 | 50.10036 | 22.10025 | 1346 ft | 59 kts | 7° |
| 2026-04-26 19:37 | 50.10449 | 22.09986 | 1294 ft | 60 kts | 336° |
| 2026-04-26 19:37 | 50.10811 | 22.09617 | 1230 ft | 61 kts | 312° |
| 2026-04-26 19:38 | 50.10925 | 22.09000 | 1156 ft | 66 kts | 272° |
| 2026-04-26 19:38 | 50.10922 | 22.08275 | 1041 ft | 67 kts | 273° |
| 2026-04-26 19:38 | 50.10930 | 22.07561 | 954 ft | 65 kts | 272° |
| 2026-04-26 19:38 | 50.10941 | 22.06893 | 858 ft | 58 kts | 270° |
| 2026-04-26 19:39 | 50.10939 | 22.06294 | 795 ft | 58 kts | 271° |
| 2026-04-26 19:39 | 50.10940 | 22.05640 | 760 ft | 60 kts | 271° |
| 2026-04-26 19:39 | 50.10950 | 22.05003 | 737 ft | 59 kts | 271° |
| 2026-04-26 19:39 | 50.10962 | 22.04364 | 710 ft | 59 kts | 272° |
| 2026-04-26 19:40 | 50.10970 | 22.03727 | 696 ft | 58 kts | 271° |
| 2026-04-26 19:40 | 50.10980 | 22.03100 | 691 ft | 58 kts | 272° |
| 2026-04-26 19:40 | 50.10988 | 22.02496 | 678 ft | 51 kts | 273° |
| 2026-04-26 19:40 | 50.10995 | 22.02018 | 673 ft | 29 kts | 272° |
| 2026-04-26 19:41 | 50.10995 | 22.01850 | 672 ft | 2 kts | 271° |
| 2026-04-26 19:41 | 50.10997 | 22.01788 | 673 ft | 22 kts | 274° |
| 2026-04-26 19:41 | 50.11005 | 22.01454 | 678 ft | 34 kts | 272° |
| 2026-04-26 19:41 | 50.11031 | 22.01222 | 678 ft | 30 kts | 289° |
| 2026-04-26 19:42 | 50.11141 | 22.00969 | 678 ft | 9 kts | 323° |
| 2026-04-26 19:42 | 50.11177 | 22.00923 | 678 ft | 0 kts | 322° |
| 2026-04-26 19:42 | 50.11190 | 22.00944 | 678 ft | 11 kts | 57° |
| 2026-04-26 19:42 | 50.11239 | 22.00991 | 679 ft | 8 kts | 4° |
| 2026-04-26 19:43 | 50.11280 | 22.00993 | 679 ft | 0 kts | 359° |